sensor_id;sensor_type;location;lat;lon;timestamp;temperature;humidity
16174;DHT22;14031;50.158;8.626;2023-03-23T00:00:12;15.20;99.90
16174;DHT22;14031;50.158;8.626;2023-03-23T00:02:39;15.20;99.90
16174;DHT22;14031;50.158;8.626;2023-03-23T00:05:08;15.10;99.90
16174;DHT22;14031;50.158;8.626;2023-03-23T00:07:35;15.20;99.90
16174;DHT22;14031;50.158;8.626;2023-03-23T00:10:02;15.20;99.90
16174;DHT22;14031;50.158;8.626;2023-03-23T00:12:31;15.20;99.90
16174;DHT22;14031;50.158;8.626;2023-03-23T00:15:00;15.20;99.90
16174;DHT22;14031;50.158;8.626;2023-03-23T00:17:28;15.20;99.90
16174;DHT22;14031;50.158;8.626;2023-03-23T00:19:55;15.30;99.90
16174;DHT22;14031;50.158;8.626;2023-03-23T00:22:23;15.10;99.90
16174;DHT22;14031;50.158;8.626;2023-03-23T00:24:50;15.10;99.90
16174;DHT22;14031;50.158;8.626;2023-03-23T00:27:18;15.10;99.90
16174;DHT22;14031;50.158;8.626;2023-03-23T00:29:47;15.20;99.90
16174;DHT22;14031;50.158;8.626;2023-03-23T00:32:18;15.10;99.90
16174;DHT22;14031;50.158;8.626;2023-03-23T00:34:46;15.10;99.90
16174;DHT22;14031;50.158;8.626;2023-03-23T00:37:14;15.10;99.90
16174;DHT22;14031;50.158;8.626;2023-03-23T00:39:43;15.10;99.90
16174;DHT22;14031;50.158;8.626;2023-03-23T00:42:13;15.10;99.90
16174;DHT22;14031;50.158;8.626;2023-03-23T00:44:40;15.00;99.90
16174;DHT22;14031;50.158;8.626;2023-03-23T00:47:09;15.10;99.90
16174;DHT22;14031;50.158;8.626;2023-03-23T00:49:37;15.10;99.90
16174;DHT22;14031;50.158;8.626;2023-03-23T00:52:05;15.10;99.90
16174;DHT22;14031;50.158;8.626;2023-03-23T00:54:32;15.20;99.90
16174;DHT22;14031;50.158;8.626;2023-03-23T00:57:01;15.20;99.90
16174;DHT22;14031;50.158;8.626;2023-03-23T00:59:27;15.10;99.90
16174;DHT22;14031;50.158;8.626;2023-03-23T01:01:54;15.10;99.90
16174;DHT22;14031;50.158;8.626;2023-03-23T01:04:21;15.10;99.90
16174;DHT22;14031;50.158;8.626;2023-03-23T01:06:50;15.00;99.90
16174;DHT22;14031;50.158;8.626;2023-03-23T01:09:18;15.00;99.90
16174;DHT22;14031;50.158;8.626;2023-03-23T01:11:47;15.00;99.90
16174;DHT22;14031;50.158;8.626;2023-03-23T01:14:18;15.00;99.90
16174;DHT22;14031;50.158;8.626;2023-03-23T01:16:45;15.10;99.90
16174;DHT22;14031;50.158;8.626;2023-03-23T01:19:12;15.00;99.90
16174;DHT22;14031;50.158;8.626;2023-03-23T01:21:39;15.00;99.90
16174;DHT22;14031;50.158;8.626;2023-03-23T01:24:07;15.00;99.90
16174;DHT22;14031;50.158;8.626;2023-03-23T01:26:34;15.00;99.90
16174;DHT22;14031;50.158;8.626;2023-03-23T01:29:00;15.00;99.90
16174;DHT22;14031;50.158;8.626;2023-03-23T01:31:28;15.00;99.90
16174;DHT22;14031;50.158;8.626;2023-03-23T01:33:55;15.00;99.90
16174;DHT22;14031;50.158;8.626;2023-03-23T01:36:24;15.00;99.90
16174;DHT22;14031;50.158;8.626;2023-03-23T01:38:52;15.00;99.90
16174;DHT22;14031;50.158;8.626;2023-03-23T01:41:20;15.00;99.90
16174;DHT22;14031;50.158;8.626;2023-03-23T01:43:58;15.00;99.90
16174;DHT22;14031;50.158;8.626;2023-03-23T01:46:26;15.00;99.90
16174;DHT22;14031;50.158;8.626;2023-03-23T01:48:59;14.90;99.90
16174;DHT22;14031;50.158;8.626;2023-03-23T01:51:31;14.90;99.90
16174;DHT22;14031;50.158;8.626;2023-03-23T01:54:05;15.00;99.90
16174;DHT22;14031;50.158;8.626;2023-03-23T01:56:38;14.90;99.90
16174;DHT22;14031;50.158;8.626;2023-03-23T01:59:07;14.90;99.90
16174;DHT22;14031;50.158;8.626;2023-03-23T02:01:35;14.80;99.90
16174;DHT22;14031;50.158;8.626;2023-03-23T02:04:05;14.80;99.90
16174;DHT22;14031;50.158;8.626;2023-03-23T02:06:33;14.80;99.90
16174;DHT22;14031;50.158;8.626;2023-03-23T02:09:00;14.70;99.90
16174;DHT22;14031;50.158;8.626;2023-03-23T02:11:28;14.70;99.90
16174;DHT22;14031;50.158;8.626;2023-03-23T02:13:55;14.70;99.90
16174;DHT22;14031;50.158;8.626;2023-03-23T02:16:28;14.70;99.90
16174;DHT22;14031;50.158;8.626;2023-03-23T02:19:06;14.70;99.90
16174;DHT22;14031;50.158;8.626;2023-03-23T02:22:02;14.70;99.90
16174;DHT22;14031;50.158;8.626;2023-03-23T02:24:58;14.50;99.90
16174;DHT22;14031;50.158;8.626;2023-03-23T02:30:43;14.60;99.90
16174;DHT22;14031;50.158;8.626;2023-03-23T02:33:36;14.60;99.90
16174;DHT22;14031;50.158;8.626;2023-03-23T02:36:17;14.70;99.90
16174;DHT22;14031;50.158;8.626;2023-03-23T02:38:50;14.60;99.90
16174;DHT22;14031;50.158;8.626;2023-03-23T02:41:20;14.60;99.90
16174;DHT22;14031;50.158;8.626;2023-03-23T02:43:50;14.70;99.90
16174;DHT22;14031;50.158;8.626;2023-03-23T02:46:17;14.70;99.90
16174;DHT22;14031;50.158;8.626;2023-03-23T02:48:47;14.60;99.90
16174;DHT22;14031;50.158;8.626;2023-03-23T02:51:18;14.60;99.90
16174;DHT22;14031;50.158;8.626;2023-03-23T02:53:47;14.60;99.90
16174;DHT22;14031;50.158;8.626;2023-03-23T02:56:16;14.60;99.90
16174;DHT22;14031;50.158;8.626;2023-03-23T02:58:43;14.60;99.90
16174;DHT22;14031;50.158;8.626;2023-03-23T03:01:16;14.60;99.90
16174;DHT22;14031;50.158;8.626;2023-03-23T03:04:05;14.60;99.90
16174;DHT22;14031;50.158;8.626;2023-03-23T03:06:37;14.50;99.90
16174;DHT22;14031;50.158;8.626;2023-03-23T03:09:11;14.50;99.90
16174;DHT22;14031;50.158;8.626;2023-03-23T03:11:47;14.40;99.90
16174;DHT22;14031;50.158;8.626;2023-03-23T03:14:20;14.30;99.90
16174;DHT22;14031;50.158;8.626;2023-03-23T03:16:56;14.30;99.90
16174;DHT22;14031;50.158;8.626;2023-03-23T03:19:27;14.20;99.90
16174;DHT22;14031;50.158;8.626;2023-03-23T03:21:57;14.20;99.90
16174;DHT22;14031;50.158;8.626;2023-03-23T03:24:29;14.10;99.90
16174;DHT22;14031;50.158;8.626;2023-03-23T03:26:58;14.10;99.90
16174;DHT22;14031;50.158;8.626;2023-03-23T03:29:27;14.10;99.90
16174;DHT22;14031;50.158;8.626;2023-03-23T03:32:00;14.20;99.90
16174;DHT22;14031;50.158;8.626;2023-03-23T03:34:31;14.10;99.90
16174;DHT22;14031;50.158;8.626;2023-03-23T03:36:59;14.00;99.90
16174;DHT22;14031;50.158;8.626;2023-03-23T03:39:26;14.10;99.90
16174;DHT22;14031;50.158;8.626;2023-03-23T03:41:54;14.00;99.90
16174;DHT22;14031;50.158;8.626;2023-03-23T03:44:21;14.00;99.90
16174;DHT22;14031;50.158;8.626;2023-03-23T03:46:48;13.90;99.90
16174;DHT22;14031;50.158;8.626;2023-03-23T03:49:15;13.90;99.90
16174;DHT22;14031;50.158;8.626;2023-03-23T03:51:43;13.90;99.90
16174;DHT22;14031;50.158;8.626;2023-03-23T03:54:10;13.90;99.90
16174;DHT22;14031;50.158;8.626;2023-03-23T03:56:37;13.90;99.90
16174;DHT22;14031;50.158;8.626;2023-03-23T03:59:06;13.90;99.90
16174;DHT22;14031;50.158;8.626;2023-03-23T04:01:33;13.90;99.90
16174;DHT22;14031;50.158;8.626;2023-03-23T04:04:00;14.00;99.90
16174;DHT22;14031;50.158;8.626;2023-03-23T04:06:27;13.90;99.90
16174;DHT22;14031;50.158;8.626;2023-03-23T04:08:55;13.90;99.90
16174;DHT22;14031;50.158;8.626;2023-03-23T04:11:24;13.90;99.90
16174;DHT22;14031;50.158;8.626;2023-03-23T04:13:51;13.90;99.90
16174;DHT22;14031;50.158;8.626;2023-03-23T04:16:18;13.90;99.90
16174;DHT22;14031;50.158;8.626;2023-03-23T04:18:46;13.90;99.90
16174;DHT22;14031;50.158;8.626;2023-03-23T04:21:13;13.90;99.90
16174;DHT22;14031;50.158;8.626;2023-03-23T04:23:41;14.00;99.90
16174;DHT22;14031;50.158;8.626;2023-03-23T04:26:09;13.90;99.90
16174;DHT22;14031;50.158;8.626;2023-03-23T04:28:38;13.90;99.90
16174;DHT22;14031;50.158;8.626;2023-03-23T04:31:06;13.90;99.90
16174;DHT22;14031;50.158;8.626;2023-03-23T04:33:34;13.90;99.90
16174;DHT22;14031;50.158;8.626;2023-03-23T04:36:03;13.90;99.90
16174;DHT22;14031;50.158;8.626;2023-03-23T04:38:31;13.90;99.90
16174;DHT22;14031;50.158;8.626;2023-03-23T04:41:00;13.90;99.90
16174;DHT22;14031;50.158;8.626;2023-03-23T04:43:28;14.00;99.90
16174;DHT22;14031;50.158;8.626;2023-03-23T04:45:56;13.90;99.90
16174;DHT22;14031;50.158;8.626;2023-03-23T04:48:24;13.80;99.90
16174;DHT22;14031;50.158;8.626;2023-03-23T04:50:51;13.80;99.90
16174;DHT22;14031;50.158;8.626;2023-03-23T04:53:18;13.80;99.90
16174;DHT22;14031;50.158;8.626;2023-03-23T04:55:46;13.80;99.90
16174;DHT22;14031;50.158;8.626;2023-03-23T04:58:15;13.80;99.90
16174;DHT22;14031;50.158;8.626;2023-03-23T05:00:43;13.80;99.90
16174;DHT22;14031;50.158;8.626;2023-03-23T05:03:15;13.80;99.90
16174;DHT22;14031;50.158;8.626;2023-03-23T05:05:42;13.90;99.90
16174;DHT22;14031;50.158;8.626;2023-03-23T05:08:12;13.90;99.90
16174;DHT22;14031;50.158;8.626;2023-03-23T05:10:39;13.90;99.90
16174;DHT22;14031;50.158;8.626;2023-03-23T05:13:06;13.80;99.90
16174;DHT22;14031;50.158;8.626;2023-03-23T05:15:33;13.90;99.90
16174;DHT22;14031;50.158;8.626;2023-03-23T05:18:01;13.90;99.90
16174;DHT22;14031;50.158;8.626;2023-03-23T05:20:28;13.90;99.90
16174;DHT22;14031;50.158;8.626;2023-03-23T05:22:55;13.90;99.90
16174;DHT22;14031;50.158;8.626;2023-03-23T05:25:23;13.90;99.90
16174;DHT22;14031;50.158;8.626;2023-03-23T05:27:49;13.90;99.90
16174;DHT22;14031;50.158;8.626;2023-03-23T05:30:18;14.10;99.90
16174;DHT22;14031;50.158;8.626;2023-03-23T05:32:46;13.90;99.90
16174;DHT22;14031;50.158;8.626;2023-03-23T05:35:18;13.90;99.90
16174;DHT22;14031;50.158;8.626;2023-03-23T05:37:45;13.90;99.90
16174;DHT22;14031;50.158;8.626;2023-03-23T05:40:13;13.90;99.90
16174;DHT22;14031;50.158;8.626;2023-03-23T05:42:41;13.80;99.90
16174;DHT22;14031;50.158;8.626;2023-03-23T05:45:09;13.80;99.90
16174;DHT22;14031;50.158;8.626;2023-03-23T05:47:37;13.80;99.90
16174;DHT22;14031;50.158;8.626;2023-03-23T05:50:06;13.80;99.90
16174;DHT22;14031;50.158;8.626;2023-03-23T05:53:01;13.80;99.90
16174;DHT22;14031;50.158;8.626;2023-03-23T05:55:57;13.80;99.90
16174;DHT22;14031;50.158;8.626;2023-03-23T05:58:57;13.80;99.90
16174;DHT22;14031;50.158;8.626;2023-03-23T06:01:24;13.90;99.90
16174;DHT22;14031;50.158;8.626;2023-03-23T06:03:56;13.80;99.90
16174;DHT22;14031;50.158;8.626;2023-03-23T06:06:24;13.80;99.90
16174;DHT22;14031;50.158;8.626;2023-03-23T06:08:52;13.80;99.90
16174;DHT22;14031;50.158;8.626;2023-03-23T06:11:19;13.80;99.90
16174;DHT22;14031;50.158;8.626;2023-03-23T06:13:46;13.80;99.90
16174;DHT22;14031;50.158;8.626;2023-03-23T06:16:14;13.70;99.90
16174;DHT22;14031;50.158;8.626;2023-03-23T06:18:41;13.80;99.90
16174;DHT22;14031;50.158;8.626;2023-03-23T06:21:08;13.80;99.90
16174;DHT22;14031;50.158;8.626;2023-03-23T06:23:35;13.80;99.90
16174;DHT22;14031;50.158;8.626;2023-03-23T06:26:06;13.80;99.90
16174;DHT22;14031;50.158;8.626;2023-03-23T06:28:34;13.70;99.90
16174;DHT22;14031;50.158;8.626;2023-03-23T06:31:02;13.80;99.90
16174;DHT22;14031;50.158;8.626;2023-03-23T06:33:30;13.70;99.90
16174;DHT22;14031;50.158;8.626;2023-03-23T06:35:57;13.70;99.90
16174;DHT22;14031;50.158;8.626;2023-03-23T06:38:24;13.70;99.90
16174;DHT22;14031;50.158;8.626;2023-03-23T06:40:51;13.70;99.90
16174;DHT22;14031;50.158;8.626;2023-03-23T06:43:20;13.80;99.90
16174;DHT22;14031;50.158;8.626;2023-03-23T06:45:47;13.70;99.90
16174;DHT22;14031;50.158;8.626;2023-03-23T06:48:14;13.80;99.90
16174;DHT22;14031;50.158;8.626;2023-03-23T06:50:42;13.80;99.90
16174;DHT22;14031;50.158;8.626;2023-03-23T06:53:10;13.80;99.90
16174;DHT22;14031;50.158;8.626;2023-03-23T06:55:37;13.80;99.90
16174;DHT22;14031;50.158;8.626;2023-03-23T06:58:05;13.80;99.90
16174;DHT22;14031;50.158;8.626;2023-03-23T07:00:33;13.90;99.90
16174;DHT22;14031;50.158;8.626;2023-03-23T07:03:00;13.90;99.90
16174;DHT22;14031;50.158;8.626;2023-03-23T07:05:28;13.90;99.90
16174;DHT22;14031;50.158;8.626;2023-03-23T07:07:55;13.90;99.90
16174;DHT22;14031;50.158;8.626;2023-03-23T07:10:21;13.90;99.90
16174;DHT22;14031;50.158;8.626;2023-03-23T07:12:49;13.90;99.90
16174;DHT22;14031;50.158;8.626;2023-03-23T07:15:15;13.80;99.90
16174;DHT22;14031;50.158;8.626;2023-03-23T07:17:44;13.90;99.90
16174;DHT22;14031;50.158;8.626;2023-03-23T07:20:11;13.90;99.90
16174;DHT22;14031;50.158;8.626;2023-03-23T07:22:38;14.00;99.90
16174;DHT22;14031;50.158;8.626;2023-03-23T07:25:06;13.90;99.90
16174;DHT22;14031;50.158;8.626;2023-03-23T07:27:33;13.90;99.90
16174;DHT22;14031;50.158;8.626;2023-03-23T07:30:00;13.90;99.90
16174;DHT22;14031;50.158;8.626;2023-03-23T07:32:26;13.90;99.90
16174;DHT22;14031;50.158;8.626;2023-03-23T07:34:55;13.90;99.90
16174;DHT22;14031;50.158;8.626;2023-03-23T07:37:22;13.90;99.90
16174;DHT22;14031;50.158;8.626;2023-03-23T07:39:49;13.90;99.90
16174;DHT22;14031;50.158;8.626;2023-03-23T07:42:16;13.90;99.90
16174;DHT22;14031;50.158;8.626;2023-03-23T07:44:43;13.90;99.90
16174;DHT22;14031;50.158;8.626;2023-03-23T07:47:09;13.90;99.90
16174;DHT22;14031;50.158;8.626;2023-03-23T07:49:36;13.90;99.90
16174;DHT22;14031;50.158;8.626;2023-03-23T07:52:04;13.90;99.90
16174;DHT22;14031;50.158;8.626;2023-03-23T07:54:31;13.90;99.90
16174;DHT22;14031;50.158;8.626;2023-03-23T07:56:58;13.90;99.90
16174;DHT22;14031;50.158;8.626;2023-03-23T07:59:25;13.90;99.90
16174;DHT22;14031;50.158;8.626;2023-03-23T08:01:51;14.00;99.90
16174;DHT22;14031;50.158;8.626;2023-03-23T08:04:18;14.00;99.90
16174;DHT22;14031;50.158;8.626;2023-03-23T08:06:45;14.00;99.90
16174;DHT22;14031;50.158;8.626;2023-03-23T08:09:13;14.00;99.90
16174;DHT22;14031;50.158;8.626;2023-03-23T08:11:41;14.10;99.90
16174;DHT22;14031;50.158;8.626;2023-03-23T08:14:08;14.10;99.90
16174;DHT22;14031;50.158;8.626;2023-03-23T08:16:35;14.10;99.90
16174;DHT22;14031;50.158;8.626;2023-03-23T08:19:02;14.10;99.90
16174;DHT22;14031;50.158;8.626;2023-03-23T08:21:30;14.20;99.90
16174;DHT22;14031;50.158;8.626;2023-03-23T08:23:58;14.20;99.90
16174;DHT22;14031;50.158;8.626;2023-03-23T08:26:26;14.40;99.90
16174;DHT22;14031;50.158;8.626;2023-03-23T08:28:53;14.20;99.90
16174;DHT22;14031;50.158;8.626;2023-03-23T08:31:20;14.20;99.90
16174;DHT22;14031;50.158;8.626;2023-03-23T08:33:47;14.20;99.90
16174;DHT22;14031;50.158;8.626;2023-03-23T08:36:14;14.10;99.90
16174;DHT22;14031;50.158;8.626;2023-03-23T08:38:40;14.20;99.90
16174;DHT22;14031;50.158;8.626;2023-03-23T08:41:08;14.20;99.90
16174;DHT22;14031;50.158;8.626;2023-03-23T08:43:37;14.20;99.90
16174;DHT22;14031;50.158;8.626;2023-03-23T08:46:05;14.30;99.90
16174;DHT22;14031;50.158;8.626;2023-03-23T08:48:51;14.30;99.90
16174;DHT22;14031;50.158;8.626;2023-03-23T08:51:19;14.40;99.90
16174;DHT22;14031;50.158;8.626;2023-03-23T08:53:46;14.50;99.90
16174;DHT22;14031;50.158;8.626;2023-03-23T08:56:13;14.60;99.90
16174;DHT22;14031;50.158;8.626;2023-03-23T08:58:41;14.50;99.90
16174;DHT22;14031;50.158;8.626;2023-03-23T09:01:08;14.50;99.90
16174;DHT22;14031;50.158;8.626;2023-03-23T09:03:37;14.60;99.90
16174;DHT22;14031;50.158;8.626;2023-03-23T09:06:08;14.60;99.90
16174;DHT22;14031;50.158;8.626;2023-03-23T09:08:38;14.70;99.90
16174;DHT22;14031;50.158;8.626;2023-03-23T09:11:08;14.80;99.90
16174;DHT22;14031;50.158;8.626;2023-03-23T09:13:36;14.80;99.90
16174;DHT22;14031;50.158;8.626;2023-03-23T09:16:06;14.90;99.90
16174;DHT22;14031;50.158;8.626;2023-03-23T09:18:33;14.90;99.90
16174;DHT22;14031;50.158;8.626;2023-03-23T09:21:09;15.00;99.90
16174;DHT22;14031;50.158;8.626;2023-03-23T09:23:36;15.10;99.90
16174;DHT22;14031;50.158;8.626;2023-03-23T09:26:03;15.20;99.90
16174;DHT22;14031;50.158;8.626;2023-03-23T09:28:30;15.20;99.90
16174;DHT22;14031;50.158;8.626;2023-03-23T09:30:57;15.30;99.90
16174;DHT22;14031;50.158;8.626;2023-03-23T09:33:26;15.30;99.90
16174;DHT22;14031;50.158;8.626;2023-03-23T09:35:54;15.40;99.90
16174;DHT22;14031;50.158;8.626;2023-03-23T09:38:21;15.40;99.90
16174;DHT22;14031;50.158;8.626;2023-03-23T09:40:49;15.40;99.90
16174;DHT22;14031;50.158;8.626;2023-03-23T09:43:34;15.50;99.90
16174;DHT22;14031;50.158;8.626;2023-03-23T09:46:12;15.60;99.90
16174;DHT22;14031;50.158;8.626;2023-03-23T09:48:49;15.70;99.90
16174;DHT22;14031;50.158;8.626;2023-03-23T09:51:34;15.80;99.90
16174;DHT22;14031;50.158;8.626;2023-03-23T09:54:05;15.90;99.90
16174;DHT22;14031;50.158;8.626;2023-03-23T09:56:36;16.00;99.90
16174;DHT22;14031;50.158;8.626;2023-03-23T09:59:09;16.10;99.90
16174;DHT22;14031;50.158;8.626;2023-03-23T10:01:41;16.10;99.90
16174;DHT22;14031;50.158;8.626;2023-03-23T10:04:15;16.10;99.90
16174;DHT22;14031;50.158;8.626;2023-03-23T10:06:46;16.10;99.90
16174;DHT22;14031;50.158;8.626;2023-03-23T10:09:16;16.20;99.90
16174;DHT22;14031;50.158;8.626;2023-03-23T10:11:54;16.00;99.90
16174;DHT22;14031;50.158;8.626;2023-03-23T10:14:37;16.00;99.90
16174;DHT22;14031;50.158;8.626;2023-03-23T10:17:14;15.90;99.90
16174;DHT22;14031;50.158;8.626;2023-03-23T10:19:47;15.80;99.90
16174;DHT22;14031;50.158;8.626;2023-03-23T10:22:20;15.80;99.90
16174;DHT22;14031;50.158;8.626;2023-03-23T10:24:51;15.80;99.90
16174;DHT22;14031;50.158;8.626;2023-03-23T10:27:26;15.90;99.90
16174;DHT22;14031;50.158;8.626;2023-03-23T10:30:01;15.90;99.90
16174;DHT22;14031;50.158;8.626;2023-03-23T10:32:40;16.00;99.90
16174;DHT22;14031;50.158;8.626;2023-03-23T10:35:13;16.00;99.90
16174;DHT22;14031;50.158;8.626;2023-03-23T10:37:44;16.00;99.90
16174;DHT22;14031;50.158;8.626;2023-03-23T10:40:15;15.90;99.90
16174;DHT22;14031;50.158;8.626;2023-03-23T10:42:43;15.90;99.90
16174;DHT22;14031;50.158;8.626;2023-03-23T10:45:16;15.90;99.90
16174;DHT22;14031;50.158;8.626;2023-03-23T10:47:46;16.00;99.90
16174;DHT22;14031;50.158;8.626;2023-03-23T10:50:22;16.20;99.90
16174;DHT22;14031;50.158;8.626;2023-03-23T10:52:51;16.40;99.90
16174;DHT22;14031;50.158;8.626;2023-03-23T10:55:22;16.50;99.90
16174;DHT22;14031;50.158;8.626;2023-03-23T10:58:00;16.50;99.90
16174;DHT22;14031;50.158;8.626;2023-03-23T11:00:29;16.50;99.90
16174;DHT22;14031;50.158;8.626;2023-03-23T11:03:25;16.40;99.90
16174;DHT22;14031;50.158;8.626;2023-03-23T11:05:59;16.40;99.90
16174;DHT22;14031;50.158;8.626;2023-03-23T11:08:31;16.20;99.90
16174;DHT22;14031;50.158;8.626;2023-03-23T11:11:11;16.20;99.90
16174;DHT22;14031;50.158;8.626;2023-03-23T11:13:41;16.20;99.90
16174;DHT22;14031;50.158;8.626;2023-03-23T11:16:10;16.10;99.90
16174;DHT22;14031;50.158;8.626;2023-03-23T11:18:39;16.00;99.90
16174;DHT22;14031;50.158;8.626;2023-03-23T11:21:09;15.90;99.90
16174;DHT22;14031;50.158;8.626;2023-03-23T11:23:39;15.90;99.90
16174;DHT22;14031;50.158;8.626;2023-03-23T11:26:13;15.90;99.90
16174;DHT22;14031;50.158;8.626;2023-03-23T11:28:43;15.90;99.90
16174;DHT22;14031;50.158;8.626;2023-03-23T11:31:12;15.90;99.90
16174;DHT22;14031;50.158;8.626;2023-03-23T11:33:52;16.20;99.90
16174;DHT22;14031;50.158;8.626;2023-03-23T11:36:29;16.50;99.90
16174;DHT22;14031;50.158;8.626;2023-03-23T11:38:57;16.70;99.90
16174;DHT22;14031;50.158;8.626;2023-03-23T11:41:30;16.80;99.90
16174;DHT22;14031;50.158;8.626;2023-03-23T11:44:03;16.90;99.90
16174;DHT22;14031;50.158;8.626;2023-03-23T11:46:41;17.00;99.90
16174;DHT22;14031;50.158;8.626;2023-03-23T11:49:14;17.20;99.90
16174;DHT22;14031;50.158;8.626;2023-03-23T11:51:47;17.20;99.90
16174;DHT22;14031;50.158;8.626;2023-03-23T11:54:19;17.20;99.90
16174;DHT22;14031;50.158;8.626;2023-03-23T11:56:47;17.20;99.90
16174;DHT22;14031;50.158;8.626;2023-03-23T11:59:25;17.10;99.90
16174;DHT22;14031;50.158;8.626;2023-03-23T12:01:56;17.00;99.90
16174;DHT22;14031;50.158;8.626;2023-03-23T12:04:37;17.00;99.90
16174;DHT22;14031;50.158;8.626;2023-03-23T12:10:15;17.10;99.90
16174;DHT22;14031;50.158;8.626;2023-03-23T12:12:48;17.20;99.90
16174;DHT22;14031;50.158;8.626;2023-03-23T12:15:22;17.30;99.90
16174;DHT22;14031;50.158;8.626;2023-03-23T12:17:57;17.30;99.90
16174;DHT22;14031;50.158;8.626;2023-03-23T12:20:33;17.20;99.90
16174;DHT22;14031;50.158;8.626;2023-03-23T12:23:17;17.10;99.90
16174;DHT22;14031;50.158;8.626;2023-03-23T12:31:40;17.00;99.90
16174;DHT22;14031;50.158;8.626;2023-03-23T12:34:20;17.10;99.90
16174;DHT22;14031;50.158;8.626;2023-03-23T12:37:01;17.10;99.90
16174;DHT22;14031;50.158;8.626;2023-03-23T12:39:53;17.20;99.90
16174;DHT22;14031;50.158;8.626;2023-03-23T12:42:29;17.30;99.90
16174;DHT22;14031;50.158;8.626;2023-03-23T12:45:04;17.50;99.90
16174;DHT22;14031;50.158;8.626;2023-03-23T12:47:37;17.60;99.90
16174;DHT22;14031;50.158;8.626;2023-03-23T12:50:13;17.60;99.90
16174;DHT22;14031;50.158;8.626;2023-03-23T12:52:47;17.60;99.90
16174;DHT22;14031;50.158;8.626;2023-03-23T12:55:20;17.70;99.90
16174;DHT22;14031;50.158;8.626;2023-03-23T12:57:52;17.80;99.90
16174;DHT22;14031;50.158;8.626;2023-03-23T13:00:22;17.80;99.90
16174;DHT22;14031;50.158;8.626;2023-03-23T13:02:56;17.80;99.90
16174;DHT22;14031;50.158;8.626;2023-03-23T13:05:33;17.80;99.90
16174;DHT22;14031;50.158;8.626;2023-03-23T13:08:06;17.90;99.90
16174;DHT22;14031;50.158;8.626;2023-03-23T13:10:42;17.80;99.90
16174;DHT22;14031;50.158;8.626;2023-03-23T13:13:14;17.70;99.90
16174;DHT22;14031;50.158;8.626;2023-03-23T13:15:48;17.60;99.90
16174;DHT22;14031;50.158;8.626;2023-03-23T13:18:23;17.40;99.90
16174;DHT22;14031;50.158;8.626;2023-03-23T13:21:00;17.40;99.90
16174;DHT22;14031;50.158;8.626;2023-03-23T13:23:32;17.50;99.90
16174;DHT22;14031;50.158;8.626;2023-03-23T13:26:03;17.50;99.90
16174;DHT22;14031;50.158;8.626;2023-03-23T13:28:34;17.70;99.90
16174;DHT22;14031;50.158;8.626;2023-03-23T13:31:11;17.70;99.90
16174;DHT22;14031;50.158;8.626;2023-03-23T13:33:38;17.80;99.90
16174;DHT22;14031;50.158;8.626;2023-03-23T13:36:10;17.80;99.90
16174;DHT22;14031;50.158;8.626;2023-03-23T13:38:39;18.20;99.90
16174;DHT22;14031;50.158;8.626;2023-03-23T13:41:14;18.40;99.90
16174;DHT22;14031;50.158;8.626;2023-03-23T13:43:42;18.50;99.90
16174;DHT22;14031;50.158;8.626;2023-03-23T13:46:23;18.70;99.90
16174;DHT22;14031;50.158;8.626;2023-03-23T13:49:03;18.80;99.90
16174;DHT22;14031;50.158;8.626;2023-03-23T13:51:36;18.90;99.90
16174;DHT22;14031;50.158;8.626;2023-03-23T13:54:14;18.80;99.90
16174;DHT22;14031;50.158;8.626;2023-03-23T13:56:51;18.60;99.90
16174;DHT22;14031;50.158;8.626;2023-03-23T13:59:30;18.60;99.90
16174;DHT22;14031;50.158;8.626;2023-03-23T14:02:27;18.40;99.90
16174;DHT22;14031;50.158;8.626;2023-03-23T14:04:55;18.30;99.90
16174;DHT22;14031;50.158;8.626;2023-03-23T14:07:23;18.10;99.90
16174;DHT22;14031;50.158;8.626;2023-03-23T14:09:51;18.00;99.90
16174;DHT22;14031;50.158;8.626;2023-03-23T14:12:21;17.90;99.90
16174;DHT22;14031;50.158;8.626;2023-03-23T14:14:50;17.80;99.90
16174;DHT22;14031;50.158;8.626;2023-03-23T14:17:21;17.70;99.90
16174;DHT22;14031;50.158;8.626;2023-03-23T14:19:51;17.60;99.90
16174;DHT22;14031;50.158;8.626;2023-03-23T14:22:22;17.50;99.90
16174;DHT22;14031;50.158;8.626;2023-03-23T14:24:49;17.40;99.90
16174;DHT22;14031;50.158;8.626;2023-03-23T14:27:21;17.30;99.90
16174;DHT22;14031;50.158;8.626;2023-03-23T14:29:58;17.20;99.90
16174;DHT22;14031;50.158;8.626;2023-03-23T14:32:28;17.00;99.90
16174;DHT22;14031;50.158;8.626;2023-03-23T14:34:56;17.00;99.90
16174;DHT22;14031;50.158;8.626;2023-03-23T14:37:23;16.90;99.90
16174;DHT22;14031;50.158;8.626;2023-03-23T14:39:52;16.80;99.90
16174;DHT22;14031;50.158;8.626;2023-03-23T14:42:26;16.70;99.90
16174;DHT22;14031;50.158;8.626;2023-03-23T14:44:54;16.70;99.90
16174;DHT22;14031;50.158;8.626;2023-03-23T14:47:23;16.60;99.90
16174;DHT22;14031;50.158;8.626;2023-03-23T14:49:53;16.50;99.90
16174;DHT22;14031;50.158;8.626;2023-03-23T14:52:22;16.40;99.90
16174;DHT22;14031;50.158;8.626;2023-03-23T14:54:49;16.50;99.90
16174;DHT22;14031;50.158;8.626;2023-03-23T14:57:17;16.60;99.90
16174;DHT22;14031;50.158;8.626;2023-03-23T14:59:47;16.60;99.90
16174;DHT22;14031;50.158;8.626;2023-03-23T15:02:17;16.60;99.90
16174;DHT22;14031;50.158;8.626;2023-03-23T15:04:46;16.70;99.90
16174;DHT22;14031;50.158;8.626;2023-03-23T15:07:15;16.80;99.90
16174;DHT22;14031;50.158;8.626;2023-03-23T15:09:45;16.90;99.90
16174;DHT22;14031;50.158;8.626;2023-03-23T15:12:19;17.00;99.90
16174;DHT22;14031;50.158;8.626;2023-03-23T15:14:49;17.10;99.90
16174;DHT22;14031;50.158;8.626;2023-03-23T15:17:19;17.30;99.90
16174;DHT22;14031;50.158;8.626;2023-03-23T15:19:47;17.50;99.90
16174;DHT22;14031;50.158;8.626;2023-03-23T15:22:19;17.70;99.90
16174;DHT22;14031;50.158;8.626;2023-03-23T15:24:46;17.90;99.90
16174;DHT22;14031;50.158;8.626;2023-03-23T15:27:16;18.10;99.90
16174;DHT22;14031;50.158;8.626;2023-03-23T15:29:52;18.20;99.90
16174;DHT22;14031;50.158;8.626;2023-03-23T15:32:25;18.20;99.90
16174;DHT22;14031;50.158;8.626;2023-03-23T15:34:56;18.20;99.90
16174;DHT22;14031;50.158;8.626;2023-03-23T15:37:26;18.20;99.90
16174;DHT22;14031;50.158;8.626;2023-03-23T15:39:54;18.10;99.90
16174;DHT22;14031;50.158;8.626;2023-03-23T15:42:23;18.00;99.90
16174;DHT22;14031;50.158;8.626;2023-03-23T15:45:16;18.00;99.90
16174;DHT22;14031;50.158;8.626;2023-03-23T15:47:47;18.00;99.90
16174;DHT22;14031;50.158;8.626;2023-03-23T15:50:17;17.90;99.90
16174;DHT22;14031;50.158;8.626;2023-03-23T15:52:44;18.00;99.90
16174;DHT22;14031;50.158;8.626;2023-03-23T15:55:21;17.90;99.90
16174;DHT22;14031;50.158;8.626;2023-03-23T15:57:48;17.90;99.90
16174;DHT22;14031;50.158;8.626;2023-03-23T16:00:19;17.90;99.90
16174;DHT22;14031;50.158;8.626;2023-03-23T16:02:48;17.80;99.90